Time;durP1;ratioP1;P1;durP2;ratioP2;P2;SDS_P1;SDS_P2;PMS_P1;PMS_P2;Temp;Humidity;BMP_temperature;BMP_pressure;BME280_temperature;BME280_humidity;BME280_pressure;Samples;Min_cycle;Max_cycle;Signal;HPM_P1;HPM_P2
2022/03/05 00:03:12;;;;;;;4.63;2.22;;;;;;;18.26;49.38;96658.00;10423038;28;20117;-23
2022/03/05 00:08:12;;;;;;;3.10;2.30;;;;;;;18.21;49.32;96644.50;10422584;28;20052;-24
2022/03/05 00:13:13;;;;;;;5.43;3.08;;;;;;;18.26;49.44;96648.72;10416650;28;20398;-24
2022/03/05 00:18:15;;;;;;;3.67;2.80;;;;;;;18.28;49.46;96651.25;10413753;28;20037;-24
2022/03/05 00:23:16;;;;;;;5.15;2.70;;;;;;;18.29;49.17;96658.91;10412833;28;20189;-24
2022/03/05 00:28:18;;;;;;;3.50;2.40;;;;;;;18.28;49.35;96658.84;10413585;28;20037;-22
2022/03/05 00:33:20;;;;;;;5.57;3.27;;;;;;;18.21;49.72;96659.69;10413019;28;20406;-23
2022/03/05 00:38:21;;;;;;;3.60;2.08;;;;;;;18.17;49.92;96652.94;10412324;28;20034;-24
2022/03/05 00:43:21;;;;;;;4.05;3.40;;;;;;;18.23;49.43;96656.31;10412698;28;20045;-24
2022/03/05 00:48:21;;;;;;;4.47;2.50;;;;;;;18.22;49.67;96653.78;10411446;28;20069;-24
2022/03/05 00:53:22;;;;;;;5.13;4.00;;;;;;;18.25;49.51;96651.25;10409254;28;20655;-24
2022/03/05 00:58:22;;;;;;;3.20;2.23;;;;;;;18.22;49.54;96643.66;10412159;28;20501;-24
2022/03/05 01:03:23;;;;;;;3.22;2.60;;;;;;;18.22;49.70;96651.25;10410898;28;20049;-23
2022/03/05 01:08:23;;;;;;;8.75;2.58;;;;;;;18.24;49.43;96657.19;10411191;28;20033;-23
2022/03/05 01:13:24;;;;;;;3.67;2.30;;;;;;;18.23;49.64;96642.78;10411019;28;20040;-24
2022/03/05 01:18:24;;;;;;;5.43;2.23;;;;;;;18.22;49.74;96647.03;10410721;28;20680;-24
2022/03/05 01:23:24;;;;;;;3.40;2.80;;;;;;;18.23;49.56;96643.66;10410211;28;20067;-24
2022/03/05 01:28:25;;;;;;;3.47;2.50;;;;;;;18.17;49.75;96643.66;10410586;28;20037;-24
2022/03/05 01:33:26;;;;;;;5.25;2.22;;;;;;;18.09;49.98;96630.13;10410032;28;20288;-24
2022/03/05 01:38:27;;;;;;;3.17;2.20;;;;;;;18.20;48.97;96640.28;10409443;28;20120;-23
2022/03/05 01:43:27;;;;;;;3.03;2.20;;;;;;;18.22;49.75;96630.97;10409764;28;20037;-23
2022/03/05 01:48:28;;;;;;;4.30;2.40;;;;;;;18.05;49.60;96602.25;10409637;28;20032;-23
2022/03/05 01:53:28;;;;;;;4.22;2.45;;;;;;;18.25;49.70;96625.94;10398594;28;20037;-24
2022/03/05 01:58:29;;;;;;;5.67;2.33;;;;;;;18.24;49.45;96621.69;10369509;28;20100;-23
2022/03/05 02:03:29;;;;;;;5.23;2.77;;;;;;;18.23;49.57;96630.97;10396333;28;20034;-23
2022/03/05 02:08:30;;;;;;;5.53;2.47;;;;;;;18.21;49.68;96626.75;10397721;28;20296;-23
2022/03/05 02:13:30;;;;;;;3.40;2.07;;;;;;;18.22;49.67;96626.75;10370525;28;20312;-23
2022/03/05 02:18:31;;;;;;;3.63;2.40;;;;;;;18.22;49.82;96630.97;10387653;28;20029;-23
2022/03/05 02:23:31;;;;;;;3.57;2.03;;;;;;;18.13;50.09;96615.78;10379294;28;20052;-24
2022/03/05 02:28:35;;;;;;;3.20;1.90;;;;;;;18.12;49.93;96624.22;10408986;28;20037;-23
2022/03/05 02:33:36;;;;;;;3.72;2.38;;;;;;;18.16;49.75;96603.13;10379116;28;20032;-24
2022/03/05 02:38:37;;;;;;;2.75;2.00;;;;;;;18.15;49.78;96596.38;10379877;28;20029;-23
2022/03/05 02:43:37;;;;;;;6.03;2.17;;;;;;;18.20;49.54;96602.25;10407425;28;20034;-24
2022/03/05 02:48:38;;;;;;;6.40;2.17;;;;;;;18.20;49.61;96604.78;10381713;28;20034;-23
2022/03/05 02:53:38;;;;;;;2.80;2.10;;;;;;;18.23;49.62;96607.31;10388087;28;20308;-25
2022/03/05 02:58:38;;;;;;;3.10;1.93;;;;;;;18.23;49.72;96602.25;10416598;28;20037;-23
2022/03/05 03:03:39;;;;;;;2.93;1.63;;;;;;;18.24;49.40;96601.44;10390337;28;20044;-24
2022/03/05 03:08:39;;;;;;;3.77;2.33;;;;;;;18.24;49.67;96599.72;10387573;28;20295;-24
2022/03/05 03:13:40;;;;;;;5.03;2.10;;;;;;;18.24;49.27;96603.97;10415501;28;20284;-24
2022/03/05 03:18:41;;;;;;;4.82;2.30;;;;;;;18.15;49.99;96597.19;10415622;28;20124;-23
2022/03/05 03:23:41;;;;;;;3.47;2.15;;;;;;;18.14;50.01;96607.31;10402312;28;20057;-23
2022/03/05 03:28:41;;;;;;;4.63;2.90;;;;;;;18.19;49.79;96601.44;10374336;28;20038;-23
2022/03/05 03:33:42;;;;;;;2.93;2.23;;;;;;;18.19;49.75;96600.56;10401745;28;20409;-24
2022/03/05 03:38:42;;;;;;;3.23;2.00;;;;;;;18.19;49.74;96595.50;10414921;28;20461;-23
2022/03/05 03:43:42;;;;;;;2.33;1.83;;;;;;;18.21;49.83;96592.13;10414311;28;20288;-23
2022/03/05 03:48:43;;;;;;;2.42;1.83;;;;;;;18.21;49.62;96592.13;10414824;28;20353;-23
2022/03/05 03:53:43;;;;;;;2.40;1.80;;;;;;;18.23;49.40;96603.09;10413720;28;20026;-25
2022/03/05 03:58:44;;;;;;;3.70;2.10;;;;;;;18.22;49.65;96600.56;10414286;28;20040;-24
2022/03/05 04:03:44;;;;;;;5.28;2.30;;;;;;;18.23;49.53;96597.19;10412682;28;20034;-23
2022/03/05 04:08:45;;;;;;;2.50;2.30;;;;;;;18.24;49.61;96599.72;10413373;28;20040;-24
2022/03/05 04:13:47;;;;;;;3.13;2.08;;;;;;;18.19;50.12;96603.97;10413489;28;20033;-23
2022/03/05 04:18:47;;;;;;;4.07;2.00;;;;;;;18.15;50.17;96604.81;10412522;28;20416;-24
2022/03/05 04:23:47;;;;;;;4.23;2.33;;;;;;;18.15;49.63;96598.91;10412600;28;20200;-24
2022/03/05 04:28:48;;;;;;;2.63;2.23;;;;;;;18.25;49.55;96605.66;10413100;28;20099;-23
2022/03/05 04:33:48;;;;;;;2.47;1.73;;;;;;;18.23;49.61;96607.31;10384825;28;20040;-23
2022/03/05 04:38:49;;;;;;;4.00;2.00;;;;;;;18.21;49.58;96607.34;10371950;28;20656;-25
2022/03/05 04:43:49;;;;;;;2.47;1.90;;;;;;;18.23;49.69;96614.91;10371383;28;20030;-23
2022/03/05 04:48:49;;;;;;;3.38;2.03;;;;;;;18.22;49.80;96620.84;10391596;28;20029;-23
2022/03/05 04:53:50;;;;;;;3.03;1.92;;;;;;;18.21;49.72;96624.22;10411573;28;20039;-23
2022/03/05 04:58:50;;;;;;;5.10;1.80;;;;;;;18.21;49.52;96625.06;10412392;28;20044;-23
2022/03/05 05:03:50;;;;;;;3.60;2.10;;;;;;;18.22;49.60;96630.97;10391600;28;20824;-23
2022/03/05 05:08:51;;;;;;;2.90;1.93;;;;;;;18.15;49.65;96631.84;10385486;28;20083;-23
2022/03/05 05:13:52;;;;;;;3.33;2.00;;;;;;;18.17;49.84;96640.28;10410120;28;20044;-24
2022/03/05 05:24:12;;;;;;;2.88;2.00;;;;;;;18.23;49.46;96643.66;10410293;28;20307;-24
2022/03/05 05:29:13;;;;;;;4.00;2.40;;;;;;;18.25;49.63;96638.59;10411242;28;20054;-24
2022/03/05 05:34:13;;;;;;;2.95;1.45;;;;;;;18.27;49.51;96634.38;10384454;28;20193;-23
2022/03/05 05:39:15;;;;;;;2.30;1.92;;;;;;;18.25;49.48;96647.03;10369962;28;20033;-23
2022/03/05 05:44:15;;;;;;;3.95;2.03;;;;;;;18.29;49.42;96642.81;10368967;28;20045;-23
2022/03/05 05:49:16;;;;;;;3.55;1.67;;;;;;;18.30;49.22;96652.13;10369524;28;20041;-23
2022/03/05 05:54:16;;;;;;;1.92;1.70;;;;;;;18.30;49.27;96644.53;10386930;28;20033;-23
2022/03/05 05:59:17;;;;;;;5.67;2.03;;;;;;;18.28;49.63;96651.25;10409313;28;20037;-23
2022/03/05 06:04:17;;;;;;;2.92;1.67;;;;;;;18.28;49.66;96649.56;10385085;28;20034;-23
2022/03/05 06:09:18;;;;;;;2.13;1.50;;;;;;;18.22;49.94;96652.09;10387006;28;20041;-23
2022/03/05 06:14:18;;;;;;;1.92;1.42;;;;;;;18.22;49.71;96656.31;10409631;28;20327;-23
2022/03/05 06:19:18;;;;;;;1.90;1.53;;;;;;;18.27;49.31;96659.69;10408216;28;20029;-23
2022/03/05 06:24:19;;;;;;;2.37;1.60;;;;;;;18.28;49.41;96663.91;10407582;28;20033;-23
2022/03/05 06:29:19;;;;;;;2.33;1.80;;;;;;;18.31;49.44;96666.47;10408812;28;20033;-23
2022/03/05 06:34:20;;;;;;;2.07;1.60;;;;;;;18.24;49.33;96659.72;10407049;28;20041;-23
2022/03/05 06:39:21;;;;;;;2.05;1.10;;;;;;;18.30;49.18;96674.94;10391497;28;20292;-25
2022/03/05 06:44:21;;;;;;;2.35;1.90;;;;;;;18.30;49.29;96678.31;10408003;23;20105;-22
2022/03/05 06:49:21;;;;;;;3.60;1.90;;;;;;;18.30;49.05;96680.00;10292830;28;20506;-21
2022/03/05 06:54:22;;;;;;;2.00;1.57;;;;;;;18.29;49.14;96688.41;10292866;28;20046;-21
2022/03/05 06:59:22;;;;;;;3.50;2.03;;;;;;;18.29;49.10;96690.94;10271751;28;20268;-21
2022/03/05 07:04:22;;;;;;;3.50;1.75;;;;;;;18.25;48.15;96692.63;10284743;28;20034;-22
2022/03/05 07:09:23;;;;;;;3.57;1.90;;;;;;;18.24;47.98;96692.66;10291320;28;20095;-22
2022/03/05 07:14:23;;;;;;;11.60;2.03;;;;;;;18.35;47.81;96698.59;10283430;28;20089;-22
2022/03/05 07:19:24;;;;;;;10.63;3.03;;;;;;;18.44;47.44;96708.72;10291038;28;20502;-21
2022/03/05 07:24:24;;;;;;;6.90;2.25;;;;;;;18.48;47.49;96705.34;10290566;28;20058;-22
2022/03/05 07:29:25;;;;;;;4.93;2.20;;;;;;;18.54;47.24;96710.41;10291959;28;20038;-21
2022/03/05 07:34:26;;;;;;;3.78;1.77;;;;;;;18.52;46.97;96712.97;10291577;28;20039;-21
2022/03/05 07:39:26;;;;;;;4.55;1.80;;;;;;;18.55;47.10;96714.63;10281940;28;20483;-22
2022/03/05 07:44:26;;;;;;;4.73;2.80;;;;;;;18.53;47.06;96703.66;10293260;28;20414;-21
2022/03/05 07:49:27;;;;;;;9.10;2.10;;;;;;;18.52;47.61;96714.66;10262871;28;20306;-21
2022/03/05 07:54:28;;;;;;;6.75;2.30;;;;;;;18.51;47.39;96713.78;10272114;28;20125;-21
2022/03/05 07:59:29;;;;;;;4.55;2.40;;;;;;;18.52;47.68;96710.44;10292468;28;20399;-21
2022/03/05 08:04:29;;;;;;;4.37;1.90;;;;;;;18.53;47.79;96716.34;10260943;28;20039;-21
2022/03/05 08:09:29;;;;;;;4.87;2.17;;;;;;;18.59;47.15;96713.81;10267907;28;20302;-22
2022/03/05 08:14:30;;;;;;;14.50;2.23;;;;;;;18.54;47.76;96720.56;10292448;28;20463;-23
2022/03/05 08:19:30;;;;;;;4.35;1.85;;;;;;;18.51;47.46;96718.03;10291875;28;20506;-22
2022/03/05 08:24:31;;;;;;;8.10;2.10;;;;;;;18.53;47.60;96719.72;10290673;28;20039;-22
2022/03/05 08:29:31;;;;;;;8.60;2.17;;;;;;;18.54;47.36;96720.56;10291322;28;20282;-22
2022/03/05 08:34:32;;;;;;;4.65;2.53;;;;;;;18.55;47.52;96722.25;10264444;28;20806;-21
2022/03/05 08:39:32;;;;;;;5.27;2.40;;;;;;;18.52;47.57;96712.13;10265103;28;20035;-21
2022/03/05 08:44:33;;;;;;;4.70;2.38;;;;;;;18.51;47.53;96703.66;10272425;28;20778;-22
2022/03/05 08:49:33;;;;;;;8.18;2.30;;;;;;;18.51;47.40;96710.44;10264636;28;20166;-22
2022/03/05 08:54:34;;;;;;;13.37;2.90;;;;;;;18.44;47.47;96698.59;10275879;28;20028;-21
2022/03/05 08:59:35;;;;;;;7.32;3.50;;;;;;;18.50;47.24;96696.91;10273999;28;20763;-22
2022/03/05 09:04:35;;;;;;;10.20;3.30;;;;;;;18.49;47.49;96687.59;10264834;28;20093;-22
2022/03/05 09:09:36;;;;;;;4.78;2.03;;;;;;;18.43;47.95;96681.69;10276424;28;20054;-22
2022/03/05 09:14:36;;;;;;;8.83;3.50;;;;;;;18.47;47.28;96688.44;10279672;28;20031;-22
2022/03/05 09:19:36;;;;;;;9.80;2.60;;;;;;;18.50;47.45;96675.78;10277594;28;20042;-21
2022/03/05 09:24:37;;;;;;;10.27;2.87;;;;;;;18.48;41.59;96675.78;10273182;28;20048;-21
2022/03/05 09:29:38;;;;;;;8.02;2.78;;;;;;;18.08;36.80;96668.16;10269584;28;20298;-22
2022/03/05 09:34:38;;;;;;;9.80;2.95;;;;;;;18.19;40.33;96672.38;10288899;28;20394;-22
2022/03/05 09:39:38;;;;;;;6.40;3.13;;;;;;;18.03;33.50;96659.69;10267359;28;20039;-20
2022/03/05 09:44:39;;;;;;;6.03;2.40;;;;;;;18.07;38.02;96662.22;10248434;29;20030;-22
2022/03/05 09:49:39;;;;;;;8.20;3.00;;;;;;;18.13;39.21;96662.25;10285498;28;20039;-22
2022/03/05 09:54:40;;;;;;;4.90;2.90;;;;;;;18.31;38.64;96662.28;10287418;28;20297;-21
2022/03/05 09:59:40;;;;;;;9.60;3.63;;;;;;;18.37;34.33;96658.88;10287507;28;20031;-22
2022/03/05 10:04:41;;;;;;;6.85;2.70;;;;;;;18.38;39.77;96660.56;10286117;28;20030;-22
2022/03/05 10:09:44;;;;;;;8.65;2.22;;;;;;;18.48;41.78;96649.56;10287198;28;20097;-21
2022/03/05 10:15:04;;;;;;;5.53;2.63;;;;;;;18.52;43.06;96651.28;10287196;28;20031;-21
2022/03/05 10:20:05;;;;;;;6.82;2.70;;;;;;;18.56;43.40;96652.94;10287432;28;20034;-21
2022/03/05 10:25:06;;;;;;;5.97;2.95;;;;;;;18.60;43.69;96647.84;10284896;28;20027;-23
2022/03/05 10:30:07;;;;;;;4.30;2.55;;;;;;;18.55;43.91;96652.13;10274824;28;20499;-21
2022/03/05 10:35:11;;;;;;;4.22;2.28;;;;;;;18.37;39.67;96651.28;10271199;28;20113;-21
2022/03/05 10:40:13;;;;;;;7.82;2.53;;;;;;;18.41;41.49;96647.91;10260303;28;20039;-22
2022/03/05 10:45:18;;;;;;;5.25;2.30;;;;;;;18.30;40.91;96654.66;10271041;28;20122;-22
2022/03/05 10:50:18;;;;;;;6.45;2.67;;;;;;;18.30;41.13;96644.53;10269758;28;20046;-20
2022/03/05 10:55:22;;;;;;;5.40;2.70;;;;;;;18.34;40.17;96651.28;10265290;28;20035;-21
2022/03/05 11:00:23;;;;;;;5.80;3.08;;;;;;;18.31;38.88;96656.34;10262308;28;20508;-21
2022/03/05 11:05:23;;;;;;;4.35;2.70;;;;;;;17.97;40.68;96657.16;10277517;28;20046;-22
2022/03/05 11:10:27;;;;;;;8.57;3.50;;;;;;;18.09;37.78;96655.47;10279726;28;20030;-21
2022/03/05 11:15:28;;;;;;;7.68;3.38;;;;;;;18.04;39.22;96651.25;10271424;28;20040;-21
2022/03/05 11:20:28;;;;;;;5.60;3.10;;;;;;;18.21;40.04;96639.41;10288462;28;20030;-22
2022/03/05 11:25:31;;;;;;;7.38;2.70;;;;;;;18.28;40.30;96638.59;10278827;28;20031;-21
2022/03/05 11:30:42;;;;;;;8.32;2.10;;;;;;;18.19;41.42;96615.78;10280073;28;20475;-22
2022/03/05 11:35:43;;;;;;;6.13;2.60;;;;;;;18.30;42.04;96629.31;10286841;28;20038;-21
2022/03/05 11:40:44;;;;;;;4.60;2.30;;;;;;;18.22;42.06;96631.84;10280496;28;20027;-20
2022/03/05 11:46:04;;;;;;;4.60;2.28;;;;;;;18.24;42.69;96627.59;10283406;28;20426;-20
2022/03/05 11:51:14;;;;;;;6.72;3.17;;;;;;;18.20;42.55;96612.41;10272999;28;20039;-21
2022/03/05 11:56:25;;;;;;;7.35;2.58;;;;;;;18.27;43.33;96620.00;10282772;28;20130;-20
2022/03/05 12:01:39;;;;;;;7.90;1.90;;;;;;;18.28;43.64;96603.97;10281226;28;20522;-22
2022/03/05 12:06:44;;;;;;;4.88;2.33;;;;;;;18.33;43.52;96611.59;10268949;28;20039;-22
2022/03/05 12:11:54;;;;;;;5.15;2.40;;;;;;;18.33;43.97;96614.13;10269639;28;20410;-21
2022/03/05 12:17:07;;;;;;;2.75;2.25;;;;;;;18.30;42.93;96603.97;10265409;28;20047;-22
2022/03/05 12:22:12;;;;;;;5.47;2.30;;;;;;;18.34;42.83;96603.97;10272112;28;20514;-22
2022/03/05 12:27:15;;;;;;;5.85;2.22;;;;;;;18.25;43.62;96588.75;10282095;28;20443;-21
2022/03/05 12:32:17;;;;;;;8.05;2.50;;;;;;;18.29;44.21;96592.13;10278088;28;20094;-22
2022/03/05 12:37:18;;;;;;;6.55;2.85;;;;;;;18.29;44.25;96589.59;10267218;28;20129;-22
2022/03/05 12:42:18;;;;;;;11.75;2.58;;;;;;;18.28;44.79;96585.38;10278903;28;20118;-21
2022/03/05 12:47:18;;;;;;;4.00;2.40;;;;;;;18.27;44.87;96573.53;10272814;28;20043;-21
2022/03/05 12:52:19;;;;;;;11.87;3.33;;;;;;;18.27;43.93;96576.06;10277486;28;20031;-22
2022/03/05 12:57:19;;;;;;;6.00;3.17;;;;;;;18.03;41.45;96565.97;10287431;28;20039;-21
2022/03/05 13:02:20;;;;;;;10.65;3.45;;;;;;;18.13;43.14;96571.03;10286497;28;20038;-22
2022/03/05 13:07:36;;;;;;;6.83;3.33;;;;;;;18.19;43.29;96558.38;10289683;28;20042;-21
2022/03/05 13:12:40;;;;;;;5.10;3.17;;;;;;;18.15;41.97;96563.44;10289691;28;20517;-22
2022/03/05 13:17:46;;;;;;;7.28;3.88;;;;;;;18.15;42.13;96558.38;10289736;28;20381;-22
2022/03/05 13:22:48;;;;;;;5.65;3.25;;;;;;;18.11;42.39;96549.06;10284073;28;20119;-21
2022/03/05 13:27:48;;;;;;;6.40;2.85;;;;;;;18.17;42.77;96547.38;10249906;28;20126;-22
2022/03/05 13:32:49;;;;;;;11.05;3.78;;;;;;;18.01;41.32;96544.88;10248949;28;20575;-21
2022/03/05 13:37:50;;;;;;;8.30;3.60;;;;;;;18.13;42.72;96539.78;10274522;28;20046;-22
2022/03/05 13:42:58;;;;;;;6.63;4.47;;;;;;;18.16;43.27;96549.91;10248084;29;20411;-21
2022/03/05 13:47:58;;;;;;;10.60;4.05;;;;;;;18.18;43.00;96546.50;10267422;28;20360;-22
2022/03/05 13:53:00;;;;;;;5.45;3.65;;;;;;;18.20;42.42;96531.31;10275186;28;20084;-22
2022/03/05 13:58:00;;;;;;;19.60;4.88;;;;;;;18.18;40.57;96535.56;10264403;28;20050;-22
2022/03/05 14:03:13;;;;;;;12.07;4.27;;;;;;;18.04;42.20;96524.59;10286621;28;20410;-22
2022/03/05 14:08:14;;;;;;;9.88;3.63;;;;;;;18.14;42.96;96536.38;10284202;28;20415;-22
2022/03/05 14:13:17;;;;;;;9.07;4.57;;;;;;;18.15;42.25;96533.84;10286756;28;20031;-22
2022/03/05 14:18:17;;;;;;;12.85;5.53;;;;;;;18.11;39.80;96531.34;10260828;28;20031;-22
2022/03/05 14:23:22;;;;;;;7.00;5.28;;;;;;;18.05;39.57;96516.13;10280909;28;20498;-22
2022/03/05 14:28:27;;;;;;;11.75;5.20;;;;;;;18.09;38.97;96522.91;10287547;28;20155;-23
2022/03/05 14:33:27;;;;;;;9.93;5.75;;;;;;;18.07;39.09;96525.44;10284848;28;20027;-22
2022/03/05 14:38:27;;;;;;;6.90;4.63;;;;;;;18.12;41.62;96528.81;10252283;28;20038;-22
2022/03/05 14:43:28;;;;;;;10.00;4.57;;;;;;;18.13;41.85;96519.50;10278779;28;20522;-21
2022/03/05 14:48:29;;;;;;;11.67;4.87;;;;;;;18.07;41.58;96519.53;10289345;28;20042;-22
2022/03/05 14:53:29;;;;;;;6.38;4.22;;;;;;;18.07;42.22;96519.53;10291052;28;20414;-22
2022/03/05 14:58:30;;;;;;;7.75;4.00;;;;;;;18.09;43.25;96512.78;10298616;28;20030;-22
2022/03/05 15:03:30;;;;;;;6.43;4.30;;;;;;;18.10;43.78;96524.59;10305870;28;20097;-21
2022/03/05 15:08:30;;;;;;;6.27;3.90;;;;;;;18.12;43.59;96525.41;10297570;28;20043;-22
2022/03/05 15:13:31;;;;;;;10.10;3.70;;;;;;;18.10;44.11;96519.50;10306353;28;20405;-21
2022/03/05 15:18:31;;;;;;;8.85;4.07;;;;;;;18.16;44.01;96514.44;10299049;28;20410;-21
2022/03/05 15:23:31;;;;;;;9.60;3.53;;;;;;;18.16;44.19;96516.97;10297263;28;20030;-21
2022/03/05 15:28:35;;;;;;;7.43;3.50;;;;;;;18.19;44.18;96514.44;10298600;28;20110;-21
2022/03/05 15:33:36;;;;;;;15.10;7.30;;;;;;;17.78;38.33;96513.63;10303454;28;20283;-20
2022/03/05 15:38:36;;;;;;;10.25;5.22;;;;;;;17.98;42.01;96514.47;10293431;28;20050;-21
2022/03/05 15:43:37;;;;;;;10.45;4.82;;;;;;;18.10;42.60;96504.31;10292662;28;20046;-21
2022/03/05 15:48:39;;;;;;;15.73;4.50;;;;;;;18.08;42.80;96500.94;10295537;28;20105;-22
2022/03/05 15:53:43;;;;;;;12.95;5.90;;;;;;;18.06;43.57;96507.69;10290530;28;20028;-22
2022/03/05 15:58:43;;;;;;;6.40;3.35;;;;;;;18.11;43.80;96506.00;10295805;28;20042;-22
2022/03/05 16:03:44;;;;;;;7.50;3.97;;;;;;;18.08;44.00;96511.09;10300078;28;20039;-22
2022/03/05 16:08:44;;;;;;;10.23;3.40;;;;;;;18.09;43.78;96507.69;10295550;28;20050;-22
2022/03/05 16:13:45;;;;;;;5.97;3.55;;;;;;;18.11;44.17;96516.13;10291489;28;20274;-21
2022/03/05 16:18:45;;;;;;;7.28;4.07;;;;;;;18.08;44.26;96508.56;10301153;28;20062;-21
2022/03/05 16:23:46;;;;;;;6.10;3.53;;;;;;;18.07;44.17;96505.16;10296452;28;20030;-24
2022/03/05 16:28:46;;;;;;;4.85;3.75;;;;;;;18.06;44.22;96510.22;10290619;28;20963;-22
2022/03/05 16:33:47;;;;;;;4.38;3.20;;;;;;;18.04;44.36;96511.91;10301648;28;20030;-22
2022/03/05 16:38:47;;;;;;;7.05;3.58;;;;;;;18.05;44.34;96503.47;10296678;28;20042;-23
2022/03/05 16:43:48;;;;;;;5.00;3.37;;;;;;;18.07;44.48;96500.09;10301514;28;20357;-22
2022/03/05 16:48:50;;;;;;;8.30;3.40;;;;;;;18.03;44.39;96500.09;10296985;28;20794;-21
2022/03/05 16:53:50;;;;;;;5.93;3.50;;;;;;;18.07;44.63;96511.94;10301325;28;20287;-22
2022/03/05 16:58:50;;;;;;;5.20;3.63;;;;;;;18.09;44.75;96522.91;10301330;28;20092;-22
2022/03/05 17:03:51;;;;;;;4.70;3.20;;;;;;;18.09;44.68;96527.97;10288539;28;20089;-22
2022/03/05 17:08:51;;;;;;;5.13;3.17;;;;;;;18.07;44.81;96525.44;10289600;28;20034;-21
2022/03/05 17:13:52;;;;;;;6.57;3.33;;;;;;;18.03;44.83;96533.03;10289566;28;20514;-21
2022/03/05 17:18:52;;;;;;;4.60;2.80;;;;;;;18.03;44.78;96527.97;10301276;28;20080;-22
2022/03/05 17:23:52;;;;;;;4.50;2.57;;;;;;;18.03;45.03;96549.09;10293047;28;20373;-22
2022/03/05 17:28:53;;;;;;;4.10;3.13;;;;;;;18.08;44.72;96551.63;10287331;28;20285;-22
2022/03/05 17:33:53;;;;;;;4.13;3.10;;;;;;;18.07;44.83;96560.06;10294486;28;20026;-22
2022/03/05 17:38:53;;;;;;;3.67;2.80;;;;;;;18.03;44.98;96568.50;10295895;28;20030;-22
2022/03/05 17:43:54;;;;;;;7.05;3.47;;;;;;;18.06;44.85;96556.69;10299353;28;20039;-22
2022/03/05 17:48:55;;;;;;;4.20;3.03;;;;;;;18.12;44.79;96571.03;10294836;28;20070;-22
2022/03/05 17:53:55;;;;;;;3.67;3.00;;;;;;;18.07;44.92;96573.56;10289548;28;20030;-22
2022/03/05 17:58:55;;;;;;;4.67;2.93;;;;;;;18.07;44.93;96573.56;10300296;28;20647;-22
2022/03/05 18:03:56;;;;;;;4.93;2.97;;;;;;;18.06;45.01;96581.16;10296182;28;20368;-22
2022/03/05 18:08:56;;;;;;;3.73;2.87;;;;;;;18.04;45.10;96591.31;10298697;28;20161;-22
2022/03/05 18:13:56;;;;;;;3.80;2.93;;;;;;;18.03;45.11;96593.84;10294829;28;20031;-24
2022/03/05 18:18:57;;;;;;;3.57;3.10;;;;;;;17.98;45.06;96593.84;10304133;28;20040;-23
2022/03/05 18:23:58;;;;;;;3.17;2.40;;;;;;;18.06;45.01;96614.09;10293439;28;20312;-21
2022/03/05 18:28:58;;;;;;;3.38;2.90;;;;;;;18.03;44.96;96609.88;10290689;28;20046;-22
2022/03/05 18:33:58;;;;;;;3.37;3.03;;;;;;;18.00;44.92;96604.81;10288414;28;20026;-22
2022/03/05 18:39:00;;;;;;;4.50;3.13;;;;;;;18.04;45.02;96630.97;10294805;28;20357;-22
2022/03/05 18:44:01;;;;;;;3.70;3.05;;;;;;;18.07;45.15;96625.94;10300736;28;20296;-22
2022/03/05 18:49:02;;;;;;;4.00;3.25;;;;;;;18.14;44.63;96632.66;10295330;28;20499;-21
2022/03/05 18:54:02;;;;;;;3.75;2.70;;;;;;;18.03;44.85;96622.56;10284982;28;20495;-22
2022/03/05 18:59:03;;;;;;;3.78;2.90;;;;;;;18.10;45.11;96641.13;10295738;28;20035;-21
2022/03/05 19:04:03;;;;;;;5.27;2.80;;;;;;;18.03;45.09;96647.03;10287814;28;20030;-21
2022/03/05 19:09:05;;;;;;;3.45;2.55;;;;;;;18.02;45.27;96637.75;10283789;28;20856;-22
2022/03/05 19:14:06;;;;;;;3.10;2.47;;;;;;;18.02;45.13;96640.28;10293061;28;20092;-21
2022/03/05 19:19:07;;;;;;;3.15;2.78;;;;;;;18.02;45.11;96642.81;10298465;28;20026;-22
2022/03/05 19:24:07;;;;;;;4.68;3.10;;;;;;;18.01;45.28;96651.25;10290282;28;20030;-22
2022/03/05 19:29:08;;;;;;;3.08;2.60;;;;;;;18.02;45.37;96651.28;10286908;28;20046;-22
2022/03/05 19:34:08;;;;;;;4.77;2.57;;;;;;;18.05;44.94;96656.31;10295040;28;20039;-22
2022/03/05 19:39:09;;;;;;;2.92;2.63;;;;;;;18.02;45.07;96663.06;10298167;28;20051;-21
2022/03/05 19:44:10;;;;;;;6.93;4.03;;;;;;;17.92;43.43;96656.31;10304661;28;20031;-22
2022/03/05 19:49:10;;;;;;;3.65;2.80;;;;;;;18.03;44.72;96662.22;10297597;28;20049;-21
2022/03/05 19:54:10;;;;;;;8.03;3.37;;;;;;;17.98;44.48;96666.47;10292481;28;20092;-22
2022/03/05 19:59:11;;;;;;;6.13;3.30;;;;;;;18.03;44.84;96667.28;10301129;28;20026;-21
2022/03/05 20:04:11;;;;;;;6.25;2.95;;;;;;;18.04;44.89;96669.84;10289476;28;20030;-22
2022/03/05 20:09:12;;;;;;;4.37;3.13;;;;;;;18.08;44.66;96663.91;10299184;28;20096;-22
2022/03/05 20:14:12;;;;;;;5.57;3.20;;;;;;;18.06;44.88;96669.81;10302470;28;20508;-22
2022/03/05 20:19:12;;;;;;;3.93;2.90;;;;;;;18.08;44.65;96663.91;10300706;28;20374;-22
2022/03/05 20:24:13;;;;;;;3.27;2.77;;;;;;;18.12;44.77;96665.63;10298402;28;20172;-21
2022/03/05 20:29:13;;;;;;;4.55;2.65;;;;;;;18.07;44.53;96671.53;10298755;28;20054;-22
2022/03/05 20:34:14;;;;;;;4.33;2.90;;;;;;;17.98;44.56;96674.06;10283934;28;20468;-22
2022/03/05 20:39:14;;;;;;;6.20;3.50;;;;;;;17.93;44.23;96673.19;10284200;28;20494;-22
2022/03/05 20:44:14;;;;;;;7.30;3.93;;;;;;;17.94;43.10;96679.94;10296971;28;20403;-22
2022/03/05 20:49:17;;;;;;;5.68;3.97;;;;;;;17.98;43.13;96685.03;10298950;28;20317;-21
2022/03/05 20:54:17;;;;;;;4.88;3.80;;;;;;;17.94;43.72;96685.88;10294528;28;20418;-22
2022/03/05 20:59:18;;;;;;;5.07;3.37;;;;;;;17.97;44.21;96685.00;10288217;28;20038;-22
2022/03/05 21:04:18;;;;;;;4.78;3.85;;;;;;;18.00;44.27;96685.84;10287792;28;20303;-22
2022/03/05 21:09:19;;;;;;;5.10;3.55;;;;;;;18.03;44.24;96685.03;10274956;28;20163;-22
2022/03/05 21:14:19;;;;;;;3.93;3.53;;;;;;;18.04;44.40;96686.72;10276431;28;20033;-22
2022/03/05 21:19:20;;;;;;;4.43;3.42;;;;;;;18.03;44.35;96695.16;10276810;28;20815;-21
2022/03/05 21:24:20;;;;;;;4.38;3.40;;;;;;;18.02;44.25;96688.41;10275939;28;20130;-22
2022/03/05 21:29:20;;;;;;;3.80;2.63;;;;;;;18.03;44.32;96692.63;10265770;28;20121;-23
2022/03/05 21:34:21;;;;;;;8.00;3.23;;;;;;;18.04;44.36;96689.25;10278724;28;20310;-22
2022/03/05 21:39:22;;;;;;;4.32;3.53;;;;;;;18.05;44.35;96696.00;10272456;28;20322;-21
2022/03/05 21:44:23;;;;;;;5.90;3.45;;;;;;;18.08;44.33;96690.97;10282133;28;20035;-21
2022/03/05 21:49:23;;;;;;;4.55;3.33;;;;;;;17.99;44.43;96701.91;10267051;28;20086;-22
2022/03/05 21:54:25;;;;;;;4.20;2.77;;;;;;;18.06;44.60;96697.69;10265443;28;20547;-21
2022/03/05 21:59:25;;;;;;;4.10;2.85;;;;;;;18.08;44.59;96693.50;10275538;28;20285;-22
2022/03/05 22:04:26;;;;;;;4.18;2.97;;;;;;;18.08;44.68;96693.50;10288164;28;20031;-22
2022/03/05 22:09:26;;;;;;;4.27;3.10;;;;;;;18.12;44.61;96700.22;10288344;28;20036;-22
2022/03/05 22:14:27;;;;;;;3.37;2.77;;;;;;;18.11;44.59;96696.00;10284571;28;20031;-22
2022/03/05 22:19:30;;;;;;;3.38;2.60;;;;;;;18.04;44.62;96692.63;10262120;28;20094;-22
2022/03/05 22:24:30;;;;;;;7.10;3.05;;;;;;;18.01;44.71;96694.31;10269380;28;20043;-23
2022/03/05 22:29:31;;;;;;;4.23;3.53;;;;;;;17.99;44.91;96696.84;10287253;28;20156;-22
2022/03/05 22:34:31;;;;;;;3.80;3.00;;;;;;;17.99;44.98;96678.28;10266412;28;20372;-22
2022/03/05 22:39:32;;;;;;;4.77;3.00;;;;;;;17.95;45.42;96689.22;10295018;28;20027;-22
2022/03/05 22:44:32;;;;;;;4.80;3.00;;;;;;;17.97;45.18;96679.94;10293628;28;20031;-22
2022/03/05 22:49:33;;;;;;;6.28;3.63;;;;;;;17.95;45.43;96672.38;10284187;28;20058;-21
2022/03/05 22:54:34;;;;;;;6.53;3.13;;;;;;;17.98;45.49;96676.59;10285099;28;20031;-22
2022/03/05 22:59:34;;;;;;;3.83;2.38;;;;;;;17.96;45.45;96678.25;10286854;28;20446;-22
2022/03/05 23:04:34;;;;;;;3.92;2.97;;;;;;;17.93;45.56;96678.25;10273704;28;20503;-22
2022/03/05 23:09:36;;;;;;;5.60;2.80;;;;;;;17.93;45.54;96685.88;10279883;28;20443;-22
2022/03/05 23:14:37;;;;;;;5.47;2.83;;;;;;;17.92;45.61;96684.19;10293537;28;20024;-22
2022/03/05 23:19:37;;;;;;;6.47;2.97;;;;;;;17.91;45.65;96685.03;10297189;28;20035;-21
2022/03/05 23:24:37;;;;;;;4.93;2.93;;;;;;;17.93;45.26;96686.69;10288530;28;20098;-22